sensor_id;sensor_type;location;lat;lon;timestamp;P1;durP1;ratioP1;P2;durP2;ratioP2
71610;SDS011;59459;51.172;6.682;2024-01-25T00:00:16;26.33;;;4.00;;
71610;SDS011;59459;51.172;6.682;2024-01-25T00:02:41;20.33;;;4.90;;
71610;SDS011;59459;51.172;6.682;2024-01-25T00:05:07;19.67;;;4.37;;
71610;SDS011;59459;51.172;6.682;2024-01-25T00:07:32;20.57;;;2.90;;
71610;SDS011;59459;51.172;6.682;2024-01-25T00:09:57;21.30;;;3.43;;
71610;SDS011;59459;51.172;6.682;2024-01-25T00:12:23;23.70;;;3.53;;
71610;SDS011;59459;51.172;6.682;2024-01-25T00:14:48;26.37;;;4.20;;
71610;SDS011;59459;51.172;6.682;2024-01-25T00:17:13;26.73;;;3.27;;
71610;SDS011;59459;51.172;6.682;2024-01-25T00:19:38;25.47;;;3.90;;
71610;SDS011;59459;51.172;6.682;2024-01-25T00:22:03;21.57;;;3.33;;
71610;SDS011;59459;51.172;6.682;2024-01-25T00:24:29;23.80;;;4.57;;
71610;SDS011;59459;51.172;6.682;2024-01-25T00:26:54;23.60;;;3.70;;
71610;SDS011;59459;51.172;6.682;2024-01-25T00:29:19;18.80;;;3.50;;
71610;SDS011;59459;51.172;6.682;2024-01-25T00:31:44;21.13;;;3.17;;
71610;SDS011;59459;51.172;6.682;2024-01-25T00:34:10;22.97;;;3.50;;
71610;SDS011;59459;51.172;6.682;2024-01-25T00:36:35;33.22;;;3.92;;
71610;SDS011;59459;51.172;6.682;2024-01-25T00:39:00;21.50;;;3.67;;
71610;SDS011;59459;51.172;6.682;2024-01-25T00:41:26;24.87;;;3.60;;
71610;SDS011;59459;51.172;6.682;2024-01-25T00:43:52;28.88;;;5.40;;
71610;SDS011;59459;51.172;6.682;2024-01-25T00:46:17;20.53;;;3.03;;
71610;SDS011;59459;51.172;6.682;2024-01-25T00:48:42;27.47;;;4.73;;
71610;SDS011;59459;51.172;6.682;2024-01-25T00:51:08;24.67;;;3.43;;
71610;SDS011;59459;51.172;6.682;2024-01-25T00:53:38;19.10;;;4.13;;
71610;SDS011;59459;51.172;6.682;2024-01-25T00:56:03;19.70;;;3.43;;
71610;SDS011;59459;51.172;6.682;2024-01-25T00:58:28;23.93;;;3.37;;
71610;SDS011;59459;51.172;6.682;2024-01-25T01:00:54;18.53;;;3.50;;
71610;SDS011;59459;51.172;6.682;2024-01-25T01:03:19;21.67;;;3.85;;
71610;SDS011;59459;51.172;6.682;2024-01-25T01:05:45;21.57;;;3.40;;
71610;SDS011;59459;51.172;6.682;2024-01-25T01:08:10;20.77;;;3.17;;
71610;SDS011;59459;51.172;6.682;2024-01-25T01:10:36;20.95;;;4.05;;
71610;SDS011;59459;51.172;6.682;2024-01-25T01:13:01;24.80;;;3.73;;
71610;SDS011;59459;51.172;6.682;2024-01-25T01:15:26;28.00;;;3.53;;
71610;SDS011;59459;51.172;6.682;2024-01-25T01:17:51;22.13;;;3.73;;
71610;SDS011;59459;51.172;6.682;2024-01-25T01:20:16;24.07;;;3.60;;
71610;SDS011;59459;51.172;6.682;2024-01-25T01:22:42;20.30;;;3.60;;
71610;SDS011;59459;51.172;6.682;2024-01-25T01:25:07;26.20;;;3.90;;
71610;SDS011;59459;51.172;6.682;2024-01-25T01:27:32;21.23;;;3.27;;
71610;SDS011;59459;51.172;6.682;2024-01-25T01:29:57;16.40;;;3.77;;
71610;SDS011;59459;51.172;6.682;2024-01-25T01:32:22;18.13;;;3.23;;
71610;SDS011;59459;51.172;6.682;2024-01-25T01:34:48;23.83;;;3.57;;
71610;SDS011;59459;51.172;6.682;2024-01-25T01:37:13;27.20;;;4.33;;
71610;SDS011;59459;51.172;6.682;2024-01-25T01:39:38;18.47;;;3.37;;
71610;SDS011;59459;51.172;6.682;2024-01-25T01:42:04;21.20;;;4.13;;
71610;SDS011;59459;51.172;6.682;2024-01-25T01:44:29;22.57;;;4.10;;
71610;SDS011;59459;51.172;6.682;2024-01-25T01:46:54;26.47;;;3.10;;
71610;SDS011;59459;51.172;6.682;2024-01-25T01:49:20;18.93;;;3.50;;
71610;SDS011;59459;51.172;6.682;2024-01-25T01:51:45;24.73;;;4.07;;
71610;SDS011;59459;51.172;6.682;2024-01-25T01:54:10;24.33;;;4.20;;
71610;SDS011;59459;51.172;6.682;2024-01-25T01:56:35;15.13;;;2.97;;
71610;SDS011;59459;51.172;6.682;2024-01-25T01:59:01;21.48;;;3.92;;
71610;SDS011;59459;51.172;6.682;2024-01-25T02:01:27;25.48;;;5.32;;
71610;SDS011;59459;51.172;6.682;2024-01-25T02:03:53;25.00;;;5.23;;
71610;SDS011;59459;51.172;6.682;2024-01-25T02:06:18;21.20;;;3.38;;
71610;SDS011;59459;51.172;6.682;2024-01-25T02:08:46;25.93;;;3.57;;
71610;SDS011;59459;51.172;6.682;2024-01-25T02:11:12;20.52;;;3.67;;
71610;SDS011;59459;51.172;6.682;2024-01-25T02:13:37;27.27;;;3.83;;
71610;SDS011;59459;51.172;6.682;2024-01-25T02:16:03;22.37;;;3.50;;
71610;SDS011;59459;51.172;6.682;2024-01-25T02:18:28;25.38;;;4.05;;
71610;SDS011;59459;51.172;6.682;2024-01-25T02:20:53;22.43;;;3.70;;
71610;SDS011;59459;51.172;6.682;2024-01-25T02:23:19;28.20;;;3.67;;
71610;SDS011;59459;51.172;6.682;2024-01-25T02:25:44;21.07;;;4.00;;
71610;SDS011;59459;51.172;6.682;2024-01-25T02:28:09;15.63;;;3.70;;
71610;SDS011;59459;51.172;6.682;2024-01-25T02:30:34;20.83;;;3.43;;
71610;SDS011;59459;51.172;6.682;2024-01-25T02:32:59;22.53;;;4.17;;
71610;SDS011;59459;51.172;6.682;2024-01-25T02:35:25;25.80;;;3.20;;
71610;SDS011;59459;51.172;6.682;2024-01-25T02:37:50;22.23;;;3.43;;
71610;SDS011;59459;51.172;6.682;2024-01-25T02:40:15;19.17;;;3.57;;
71610;SDS011;59459;51.172;6.682;2024-01-25T02:42:41;23.00;;;3.80;;
71610;SDS011;59459;51.172;6.682;2024-01-25T02:45:06;30.43;;;3.97;;
71610;SDS011;59459;51.172;6.682;2024-01-25T02:47:31;23.23;;;2.93;;
71610;SDS011;59459;51.172;6.682;2024-01-25T02:49:56;18.87;;;3.10;;
71610;SDS011;59459;51.172;6.682;2024-01-25T02:52:22;25.60;;;4.23;;
71610;SDS011;59459;51.172;6.682;2024-01-25T02:54:47;25.93;;;4.37;;
71610;SDS011;59459;51.172;6.682;2024-01-25T02:57:12;17.07;;;3.80;;
71610;SDS011;59459;51.172;6.682;2024-01-25T02:59:38;20.57;;;3.73;;
71610;SDS011;59459;51.172;6.682;2024-01-25T03:02:03;30.30;;;4.00;;
71610;SDS011;59459;51.172;6.682;2024-01-25T03:04:28;30.63;;;4.03;;
71610;SDS011;59459;51.172;6.682;2024-01-25T03:06:53;19.73;;;4.30;;
71610;SDS011;59459;51.172;6.682;2024-01-25T03:09:19;18.43;;;3.30;;
71610;SDS011;59459;51.172;6.682;2024-01-25T03:11:46;25.37;;;3.60;;
71610;SDS011;59459;51.172;6.682;2024-01-25T03:14:11;26.93;;;4.30;;
71610;SDS011;59459;51.172;6.682;2024-01-25T03:16:36;19.03;;;3.73;;
71610;SDS011;59459;51.172;6.682;2024-01-25T03:19:01;24.67;;;5.20;;
71610;SDS011;59459;51.172;6.682;2024-01-25T03:21:27;20.00;;;4.07;;
71610;SDS011;59459;51.172;6.682;2024-01-25T03:23:52;35.70;;;4.10;;
71610;SDS011;59459;51.172;6.682;2024-01-25T03:26:17;37.90;;;5.17;;
71610;SDS011;59459;51.172;6.682;2024-01-25T03:28:43;25.43;;;3.40;;
71610;SDS011;59459;51.172;6.682;2024-01-25T03:31:08;29.30;;;4.00;;
71610;SDS011;59459;51.172;6.682;2024-01-25T03:33:33;30.43;;;4.20;;
71610;SDS011;59459;51.172;6.682;2024-01-25T03:36:05;29.67;;;4.23;;
71610;SDS011;59459;51.172;6.682;2024-01-25T03:38:30;23.00;;;3.65;;
71610;SDS011;59459;51.172;6.682;2024-01-25T03:40:56;20.53;;;4.17;;
71610;SDS011;59459;51.172;6.682;2024-01-25T03:43:23;25.10;;;4.05;;
71610;SDS011;59459;51.172;6.682;2024-01-25T03:45:49;31.90;;;3.83;;
71610;SDS011;59459;51.172;6.682;2024-01-25T03:48:14;25.93;;;4.47;;
71610;SDS011;59459;51.172;6.682;2024-01-25T03:50:39;23.13;;;3.97;;
71610;SDS011;59459;51.172;6.682;2024-01-25T03:53:05;18.40;;;3.87;;
71610;SDS011;59459;51.172;6.682;2024-01-25T03:55:31;22.85;;;3.88;;
71610;SDS011;59459;51.172;6.682;2024-01-25T03:57:56;29.07;;;4.07;;
71610;SDS011;59459;51.172;6.682;2024-01-25T04:00:21;27.87;;;4.10;;
71610;SDS011;59459;51.172;6.682;2024-01-25T04:02:47;26.25;;;3.83;;
71610;SDS011;59459;51.172;6.682;2024-01-25T04:05:13;25.87;;;4.63;;
71610;SDS011;59459;51.172;6.682;2024-01-25T04:07:39;22.88;;;4.13;;
71610;SDS011;59459;51.172;6.682;2024-01-25T04:10:04;18.70;;;3.40;;
71610;SDS011;59459;51.172;6.682;2024-01-25T04:12:30;19.73;;;3.57;;
71610;SDS011;59459;51.172;6.682;2024-01-25T04:14:56;21.33;;;4.07;;
71610;SDS011;59459;51.172;6.682;2024-01-25T04:17:21;24.40;;;4.10;;
71610;SDS011;59459;51.172;6.682;2024-01-25T04:19:46;26.10;;;3.70;;
71610;SDS011;59459;51.172;6.682;2024-01-25T04:22:12;26.00;;;3.60;;
71610;SDS011;59459;51.172;6.682;2024-01-25T04:24:37;26.73;;;3.90;;
71610;SDS011;59459;51.172;6.682;2024-01-25T04:27:02;20.47;;;3.50;;
71610;SDS011;59459;51.172;6.682;2024-01-25T04:29:27;29.87;;;4.90;;
71610;SDS011;59459;51.172;6.682;2024-01-25T04:31:52;21.10;;;3.13;;
71610;SDS011;59459;51.172;6.682;2024-01-25T04:34:18;23.33;;;3.90;;
71610;SDS011;59459;51.172;6.682;2024-01-25T04:36:43;29.98;;;4.50;;
71610;SDS011;59459;51.172;6.682;2024-01-25T04:39:08;16.17;;;3.47;;
71610;SDS011;59459;51.172;6.682;2024-01-25T04:41:34;20.67;;;3.77;;
71610;SDS011;59459;51.172;6.682;2024-01-25T04:43:59;25.80;;;3.53;;
71610;SDS011;59459;51.172;6.682;2024-01-25T04:46:24;22.17;;;4.00;;
71610;SDS011;59459;51.172;6.682;2024-01-25T04:48:49;17.03;;;3.73;;
71610;SDS011;59459;51.172;6.682;2024-01-25T04:51:18;18.17;;;3.93;;
71610;SDS011;59459;51.172;6.682;2024-01-25T04:53:43;23.38;;;4.47;;
71610;SDS011;59459;51.172;6.682;2024-01-25T04:56:09;32.70;;;4.60;;
71610;SDS011;59459;51.172;6.682;2024-01-25T04:58:34;21.03;;;3.70;;
71610;SDS011;59459;51.172;6.682;2024-01-25T05:00:59;21.47;;;3.53;;
71610;SDS011;59459;51.172;6.682;2024-01-25T05:03:25;17.73;;;3.63;;
71610;SDS011;59459;51.172;6.682;2024-01-25T05:05:50;21.37;;;3.53;;
71610;SDS011;59459;51.172;6.682;2024-01-25T05:08:15;20.30;;;3.60;;
71610;SDS011;59459;51.172;6.682;2024-01-25T05:10:40;14.63;;;3.70;;
71610;SDS011;59459;51.172;6.682;2024-01-25T05:13:06;18.23;;;3.53;;
71610;SDS011;59459;51.172;6.682;2024-01-25T05:15:32;18.27;;;3.83;;
71610;SDS011;59459;51.172;6.682;2024-01-25T05:17:57;21.80;;;3.63;;
71610;SDS011;59459;51.172;6.682;2024-01-25T05:20:22;26.17;;;4.37;;
71610;SDS011;59459;51.172;6.682;2024-01-25T05:22:47;23.13;;;3.73;;
71610;SDS011;59459;51.172;6.682;2024-01-25T05:25:12;18.10;;;3.00;;
71610;SDS011;59459;51.172;6.682;2024-01-25T05:27:38;18.97;;;3.17;;
71610;SDS011;59459;51.172;6.682;2024-01-25T05:30:03;13.03;;;3.07;;
71610;SDS011;59459;51.172;6.682;2024-01-25T05:32:29;18.73;;;3.88;;
71610;SDS011;59459;51.172;6.682;2024-01-25T05:34:55;23.70;;;4.60;;
71610;SDS011;59459;51.172;6.682;2024-01-25T05:37:20;21.33;;;4.40;;
71610;SDS011;59459;51.172;6.682;2024-01-25T05:39:45;21.70;;;3.80;;
71610;SDS011;59459;51.172;6.682;2024-01-25T05:42:11;19.70;;;4.50;;
71610;SDS011;59459;51.172;6.682;2024-01-25T05:44:36;27.77;;;4.03;;
71610;SDS011;59459;51.172;6.682;2024-01-25T05:47:01;22.03;;;4.50;;
71610;SDS011;59459;51.172;6.682;2024-01-25T05:49:26;26.27;;;5.23;;
71610;SDS011;59459;51.172;6.682;2024-01-25T05:51:52;24.70;;;5.20;;
71610;SDS011;59459;51.172;6.682;2024-01-25T05:54:17;23.07;;;4.23;;
71610;SDS011;59459;51.172;6.682;2024-01-25T05:56:42;26.87;;;5.17;;
71610;SDS011;59459;51.172;6.682;2024-01-25T05:59:07;30.07;;;5.03;;
71610;SDS011;59459;51.172;6.682;2024-01-25T06:01:33;25.47;;;5.20;;
71610;SDS011;59459;51.172;6.682;2024-01-25T06:03:58;24.23;;;3.87;;
71610;SDS011;59459;51.172;6.682;2024-01-25T06:06:23;18.47;;;4.00;;
71610;SDS011;59459;51.172;6.682;2024-01-25T06:08:48;25.23;;;4.17;;
71610;SDS011;59459;51.172;6.682;2024-01-25T06:11:13;24.20;;;4.40;;
71610;SDS011;59459;51.172;6.682;2024-01-25T06:13:39;19.87;;;3.43;;
71610;SDS011;59459;51.172;6.682;2024-01-25T06:16:04;26.13;;;4.77;;
71610;SDS011;59459;51.172;6.682;2024-01-25T06:18:29;28.07;;;4.03;;
71610;SDS011;59459;51.172;6.682;2024-01-25T06:20:54;20.80;;;4.03;;
71610;SDS011;59459;51.172;6.682;2024-01-25T06:23:20;22.30;;;4.20;;
71610;SDS011;59459;51.172;6.682;2024-01-25T06:25:45;20.43;;;3.10;;
71610;SDS011;59459;51.172;6.682;2024-01-25T06:28:10;26.10;;;3.30;;
71610;SDS011;59459;51.172;6.682;2024-01-25T06:30:35;23.13;;;4.00;;
71610;SDS011;59459;51.172;6.682;2024-01-25T06:33:00;22.10;;;4.03;;
71610;SDS011;59459;51.172;6.682;2024-01-25T06:35:26;25.77;;;4.57;;
71610;SDS011;59459;51.172;6.682;2024-01-25T06:37:51;23.40;;;4.20;;
71610;SDS011;59459;51.172;6.682;2024-01-25T06:40:16;20.60;;;3.03;;
71610;SDS011;59459;51.172;6.682;2024-01-25T06:42:41;20.10;;;3.70;;
71610;SDS011;59459;51.172;6.682;2024-01-25T06:45:10;19.30;;;3.72;;
71610;SDS011;59459;51.172;6.682;2024-01-25T06:47:35;25.10;;;4.37;;
71610;SDS011;59459;51.172;6.682;2024-01-25T06:50:00;20.13;;;3.97;;
71610;SDS011;59459;51.172;6.682;2024-01-25T06:52:26;20.93;;;5.87;;
71610;SDS011;59459;51.172;6.682;2024-01-25T06:54:54;30.13;;;5.30;;
71610;SDS011;59459;51.172;6.682;2024-01-25T06:57:19;27.17;;;3.53;;
71610;SDS011;59459;51.172;6.682;2024-01-25T06:59:45;21.50;;;3.37;;
71610;SDS011;59459;51.172;6.682;2024-01-25T07:02:10;20.27;;;3.63;;
71610;SDS011;59459;51.172;6.682;2024-01-25T07:04:36;25.77;;;4.25;;
71610;SDS011;59459;51.172;6.682;2024-01-25T07:07:03;23.40;;;3.28;;
71610;SDS011;59459;51.172;6.682;2024-01-25T07:09:28;17.60;;;3.90;;
71610;SDS011;59459;51.172;6.682;2024-01-25T07:11:53;28.43;;;4.60;;
71610;SDS011;59459;51.172;6.682;2024-01-25T07:14:18;17.53;;;4.23;;
71610;SDS011;59459;51.172;6.682;2024-01-25T07:16:44;20.77;;;4.20;;
71610;SDS011;59459;51.172;6.682;2024-01-25T07:19:09;19.83;;;3.40;;
71610;SDS011;59459;51.172;6.682;2024-01-25T07:21:34;27.63;;;5.40;;
71610;SDS011;59459;51.172;6.682;2024-01-25T07:24:00;20.70;;;4.20;;
71610;SDS011;59459;51.172;6.682;2024-01-25T07:26:26;30.33;;;4.28;;
71610;SDS011;59459;51.172;6.682;2024-01-25T07:28:51;27.07;;;4.17;;
71610;SDS011;59459;51.172;6.682;2024-01-25T07:31:21;26.55;;;3.80;;
71610;SDS011;59459;51.172;6.682;2024-01-25T07:33:47;30.17;;;5.03;;
71610;SDS011;59459;51.172;6.682;2024-01-25T07:36:12;28.33;;;4.37;;
71610;SDS011;59459;51.172;6.682;2024-01-25T07:38:37;25.10;;;5.07;;
71610;SDS011;59459;51.172;6.682;2024-01-25T07:41:03;24.77;;;4.47;;
71610;SDS011;59459;51.172;6.682;2024-01-25T07:43:28;25.60;;;4.15;;
71610;SDS011;59459;51.172;6.682;2024-01-25T07:45:54;23.60;;;5.27;;
71610;SDS011;59459;51.172;6.682;2024-01-25T07:48:19;21.90;;;4.33;;
71610;SDS011;59459;51.172;6.682;2024-01-25T07:50:44;22.27;;;4.60;;
71610;SDS011;59459;51.172;6.682;2024-01-25T07:53:09;30.90;;;5.00;;
71610;SDS011;59459;51.172;6.682;2024-01-25T07:55:36;31.23;;;5.35;;
71610;SDS011;59459;51.172;6.682;2024-01-25T07:58:01;21.20;;;4.37;;
71610;SDS011;59459;51.172;6.682;2024-01-25T08:00:26;22.83;;;4.20;;
71610;SDS011;59459;51.172;6.682;2024-01-25T08:02:51;27.53;;;4.30;;
71610;SDS011;59459;51.172;6.682;2024-01-25T08:05:16;18.50;;;4.77;;
71610;SDS011;59459;51.172;6.682;2024-01-25T08:07:42;25.23;;;5.63;;
71610;SDS011;59459;51.172;6.682;2024-01-25T08:10:07;30.30;;;5.83;;
71610;SDS011;59459;51.172;6.682;2024-01-25T08:12:32;26.43;;;5.37;;
71610;SDS011;59459;51.172;6.682;2024-01-25T08:14:58;23.77;;;5.10;;
71610;SDS011;59459;51.172;6.682;2024-01-25T08:17:23;26.17;;;5.43;;
71610;SDS011;59459;51.172;6.682;2024-01-25T08:19:48;32.13;;;5.50;;
71610;SDS011;59459;51.172;6.682;2024-01-25T08:22:13;20.90;;;5.77;;
71610;SDS011;59459;51.172;6.682;2024-01-25T08:24:39;29.70;;;5.47;;
71610;SDS011;59459;51.172;6.682;2024-01-25T08:27:05;31.45;;;6.47;;
71610;SDS011;59459;51.172;6.682;2024-01-25T08:29:32;26.13;;;5.78;;
71610;SDS011;59459;51.172;6.682;2024-01-25T08:31:57;29.37;;;6.83;;
71610;SDS011;59459;51.172;6.682;2024-01-25T08:34:22;24.53;;;6.33;;
71610;SDS011;59459;51.172;6.682;2024-01-25T08:36:48;33.20;;;7.57;;
71610;SDS011;59459;51.172;6.682;2024-01-25T08:39:13;28.47;;;7.20;;
71610;SDS011;59459;51.172;6.682;2024-01-25T08:41:39;28.50;;;8.00;;
71610;SDS011;59459;51.172;6.682;2024-01-25T08:44:04;32.60;;;6.90;;
71610;SDS011;59459;51.172;6.682;2024-01-25T08:46:30;28.57;;;6.30;;
71610;SDS011;59459;51.172;6.682;2024-01-25T08:48:55;34.40;;;8.20;;
71610;SDS011;59459;51.172;6.682;2024-01-25T08:51:20;30.97;;;6.37;;
71610;SDS011;59459;51.172;6.682;2024-01-25T08:53:45;30.83;;;7.90;;
71610;SDS011;59459;51.172;6.682;2024-01-25T08:56:11;35.60;;;8.03;;
71610;SDS011;59459;51.172;6.682;2024-01-25T08:58:36;22.30;;;7.53;;
71610;SDS011;59459;51.172;6.682;2024-01-25T09:01:01;25.40;;;7.00;;
71610;SDS011;59459;51.172;6.682;2024-01-25T09:03:26;28.20;;;7.57;;
71610;SDS011;59459;51.172;6.682;2024-01-25T09:05:52;26.97;;;7.53;;
71610;SDS011;59459;51.172;6.682;2024-01-25T09:08:17;29.50;;;7.57;;
71610;SDS011;59459;51.172;6.682;2024-01-25T09:10:42;24.17;;;7.37;;
71610;SDS011;59459;51.172;6.682;2024-01-25T09:13:08;29.90;;;7.50;;
71610;SDS011;59459;51.172;6.682;2024-01-25T09:15:33;26.53;;;8.17;;
71610;SDS011;59459;51.172;6.682;2024-01-25T09:17:58;34.53;;;8.83;;
71610;SDS011;59459;51.172;6.682;2024-01-25T09:20:24;32.77;;;7.77;;
71610;SDS011;59459;51.172;6.682;2024-01-25T09:22:50;32.73;;;8.40;;
71610;SDS011;59459;51.172;6.682;2024-01-25T09:25:15;29.97;;;8.13;;
71610;SDS011;59459;51.172;6.682;2024-01-25T09:27:40;37.53;;;8.67;;
71610;SDS011;59459;51.172;6.682;2024-01-25T09:30:06;32.57;;;8.67;;
71610;SDS011;59459;51.172;6.682;2024-01-25T09:32:31;29.50;;;8.05;;
71610;SDS011;59459;51.172;6.682;2024-01-25T09:34:56;30.10;;;7.70;;
71610;SDS011;59459;51.172;6.682;2024-01-25T09:37:21;33.33;;;8.63;;
71610;SDS011;59459;51.172;6.682;2024-01-25T09:39:49;34.42;;;8.60;;
71610;SDS011;59459;51.172;6.682;2024-01-25T09:42:14;30.47;;;7.30;;
71610;SDS011;59459;51.172;6.682;2024-01-25T09:44:40;34.50;;;8.30;;
71610;SDS011;59459;51.172;6.682;2024-01-25T09:47:06;33.60;;;8.30;;
71610;SDS011;59459;51.172;6.682;2024-01-25T09:49:32;30.73;;;8.32;;
71610;SDS011;59459;51.172;6.682;2024-01-25T09:51:57;24.30;;;8.03;;
71610;SDS011;59459;51.172;6.682;2024-01-25T09:54:23;26.38;;;7.80;;
71610;SDS011;59459;51.172;6.682;2024-01-25T09:56:51;31.53;;;8.20;;
71610;SDS011;59459;51.172;6.682;2024-01-25T09:59:16;30.80;;;8.82;;
71610;SDS011;59459;51.172;6.682;2024-01-25T10:01:41;27.50;;;6.93;;
71610;SDS011;59459;51.172;6.682;2024-01-25T10:04:07;30.10;;;7.38;;
71610;SDS011;59459;51.172;6.682;2024-01-25T10:06:33;37.30;;;7.80;;
71610;SDS011;59459;51.172;6.682;2024-01-25T10:08:58;26.27;;;7.53;;
71610;SDS011;59459;51.172;6.682;2024-01-25T10:11:23;34.23;;;7.67;;
71610;SDS011;59459;51.172;6.682;2024-01-25T10:13:49;36.60;;;7.90;;
71610;SDS011;59459;51.172;6.682;2024-01-25T10:16:19;27.23;;;7.63;;
71610;SDS011;59459;51.172;6.682;2024-01-25T10:18:45;28.90;;;7.32;;
71610;SDS011;59459;51.172;6.682;2024-01-25T10:21:11;22.87;;;7.73;;
71610;SDS011;59459;51.172;6.682;2024-01-25T10:23:37;31.48;;;7.65;;
71610;SDS011;59459;51.172;6.682;2024-01-25T10:26:02;28.83;;;7.30;;
71610;SDS011;59459;51.172;6.682;2024-01-25T10:28:28;29.70;;;7.20;;
71610;SDS011;59459;51.172;6.682;2024-01-25T10:30:55;33.75;;;8.25;;
71610;SDS011;59459;51.172;6.682;2024-01-25T10:33:21;26.98;;;6.78;;
71610;SDS011;59459;51.172;6.682;2024-01-25T10:35:46;29.03;;;7.33;;
71610;SDS011;59459;51.172;6.682;2024-01-25T10:38:18;29.02;;;7.53;;
71610;SDS011;59459;51.172;6.682;2024-01-25T10:40:43;37.60;;;8.07;;
71610;SDS011;59459;51.172;6.682;2024-01-25T10:43:08;34.67;;;8.57;;
71610;SDS011;59459;51.172;6.682;2024-01-25T10:45:34;33.23;;;8.43;;
71610;SDS011;59459;51.172;6.682;2024-01-25T10:47:59;44.73;;;9.27;;
71610;SDS011;59459;51.172;6.682;2024-01-25T10:50:24;38.07;;;9.10;;
71610;SDS011;59459;51.172;6.682;2024-01-25T10:52:50;40.30;;;10.15;;
71610;SDS011;59459;51.172;6.682;2024-01-25T10:55:16;46.80;;;10.43;;
71610;SDS011;59459;51.172;6.682;2024-01-25T10:57:44;30.48;;;9.88;;
71610;SDS011;59459;51.172;6.682;2024-01-25T11:00:11;36.13;;;10.30;;
71610;SDS011;59459;51.172;6.682;2024-01-25T11:02:37;36.58;;;10.70;;
71610;SDS011;59459;51.172;6.682;2024-01-25T11:05:22;32.67;;;9.70;;
71610;SDS011;59459;51.172;6.682;2024-01-25T11:07:49;35.83;;;10.90;;
71610;SDS011;59459;51.172;6.682;2024-01-25T11:10:16;39.17;;;10.48;;
71610;SDS011;59459;51.172;6.682;2024-01-25T11:12:57;36.80;;;10.40;;
71610;SDS011;59459;51.172;6.682;2024-01-25T11:15:23;44.20;;;11.18;;
71610;SDS011;59459;51.172;6.682;2024-01-25T11:17:55;42.38;;;13.00;;
71610;SDS011;59459;51.172;6.682;2024-01-25T11:20:21;49.80;;;10.43;;
71610;SDS011;59459;51.172;6.682;2024-01-25T11:22:47;32.83;;;10.57;;
71610;SDS011;59459;51.172;6.682;2024-01-25T11:25:13;41.00;;;12.20;;
71610;SDS011;59459;51.172;6.682;2024-01-25T11:27:42;41.30;;;11.80;;
71610;SDS011;59459;51.172;6.682;2024-01-25T11:30:07;45.30;;;12.47;;
71610;SDS011;59459;51.172;6.682;2024-01-25T11:32:33;41.80;;;11.95;;
71610;SDS011;59459;51.172;6.682;2024-01-25T11:34:59;46.20;;;13.27;;
71610;SDS011;59459;51.172;6.682;2024-01-25T11:37:24;45.88;;;11.77;;
71610;SDS011;59459;51.172;6.682;2024-01-25T11:39:49;38.13;;;12.60;;
71610;SDS011;59459;51.172;6.682;2024-01-25T11:42:14;38.63;;;10.90;;
71610;SDS011;59459;51.172;6.682;2024-01-25T11:44:39;41.03;;;10.50;;
71610;SDS011;59459;51.172;6.682;2024-01-25T11:47:05;47.03;;;12.63;;
71610;SDS011;59459;51.172;6.682;2024-01-25T11:49:30;33.87;;;10.77;;
71610;SDS011;59459;51.172;6.682;2024-01-25T11:51:57;37.10;;;11.47;;
71610;SDS011;59459;51.172;6.682;2024-01-25T11:54:23;40.88;;;11.40;;
71610;SDS011;59459;51.172;6.682;2024-01-25T11:56:49;38.13;;;10.33;;
71610;SDS011;59459;51.172;6.682;2024-01-25T11:59:14;39.53;;;10.13;;
71610;SDS011;59459;51.172;6.682;2024-01-25T12:01:39;43.23;;;10.97;;
71610;SDS011;59459;51.172;6.682;2024-01-25T12:04:05;38.30;;;9.90;;
71610;SDS011;59459;51.172;6.682;2024-01-25T12:06:32;38.78;;;9.45;;
71610;SDS011;59459;51.172;6.682;2024-01-25T12:09:07;36.25;;;10.73;;
71610;SDS011;59459;51.172;6.682;2024-01-25T12:11:33;33.20;;;10.23;;
71610;SDS011;59459;51.172;6.682;2024-01-25T12:13:58;38.67;;;9.73;;
71610;SDS011;59459;51.172;6.682;2024-01-25T12:16:23;39.97;;;9.07;;
71610;SDS011;59459;51.172;6.682;2024-01-25T12:18:49;31.90;;;9.70;;
71610;SDS011;59459;51.172;6.682;2024-01-25T12:21:14;29.40;;;8.47;;
71610;SDS011;59459;51.172;6.682;2024-01-25T12:23:40;35.83;;;9.20;;
71610;SDS011;59459;51.172;6.682;2024-01-25T12:26:09;26.17;;;7.78;;
71610;SDS011;59459;51.172;6.682;2024-01-25T12:28:34;32.72;;;9.00;;
71610;SDS011;59459;51.172;6.682;2024-01-25T12:31:00;34.00;;;9.07;;
71610;SDS011;59459;51.172;6.682;2024-01-25T12:33:26;32.80;;;9.13;;
71610;SDS011;59459;51.172;6.682;2024-01-25T12:35:51;31.00;;;8.53;;
71610;SDS011;59459;51.172;6.682;2024-01-25T12:38:16;34.97;;;9.80;;
71610;SDS011;59459;51.172;6.682;2024-01-25T12:40:43;36.50;;;9.93;;
71610;SDS011;59459;51.172;6.682;2024-01-25T12:43:08;33.10;;;9.57;;
71610;SDS011;59459;51.172;6.682;2024-01-25T12:45:34;29.10;;;9.70;;
71610;SDS011;59459;51.172;6.682;2024-01-25T12:47:59;36.03;;;9.53;;
71610;SDS011;59459;51.172;6.682;2024-01-25T12:50:24;36.03;;;8.33;;
71610;SDS011;59459;51.172;6.682;2024-01-25T12:52:49;38.40;;;8.57;;
71610;SDS011;59459;51.172;6.682;2024-01-25T12:55:16;35.77;;;8.73;;
71610;SDS011;59459;51.172;6.682;2024-01-25T12:57:41;33.92;;;9.20;;
71610;SDS011;59459;51.172;6.682;2024-01-25T13:00:06;30.90;;;9.20;;
71610;SDS011;59459;51.172;6.682;2024-01-25T13:02:31;31.47;;;9.27;;
71610;SDS011;59459;51.172;6.682;2024-01-25T13:04:57;39.93;;;9.03;;
71610;SDS011;59459;51.172;6.682;2024-01-25T13:07:22;36.30;;;9.07;;
71610;SDS011;59459;51.172;6.682;2024-01-25T13:09:47;32.63;;;7.47;;
71610;SDS011;59459;51.172;6.682;2024-01-25T13:12:12;33.53;;;8.93;;
71610;SDS011;59459;51.172;6.682;2024-01-25T13:14:38;32.53;;;8.50;;
71610;SDS011;59459;51.172;6.682;2024-01-25T13:17:04;26.40;;;8.43;;
71610;SDS011;59459;51.172;6.682;2024-01-25T13:19:29;33.37;;;7.00;;
71610;SDS011;59459;51.172;6.682;2024-01-25T13:21:54;27.80;;;6.90;;
71610;SDS011;59459;51.172;6.682;2024-01-25T13:24:19;40.10;;;9.20;;
71610;SDS011;59459;51.172;6.682;2024-01-25T13:26:45;36.83;;;8.10;;
71610;SDS011;59459;51.172;6.682;2024-01-25T13:29:10;24.77;;;6.67;;
71610;SDS011;59459;51.172;6.682;2024-01-25T13:31:38;32.17;;;7.22;;
71610;SDS011;59459;51.172;6.682;2024-01-25T13:34:03;31.07;;;7.67;;
71610;SDS011;59459;51.172;6.682;2024-01-25T13:36:29;27.98;;;7.80;;
71610;SDS011;59459;51.172;6.682;2024-01-25T13:38:54;30.77;;;8.20;;
71610;SDS011;59459;51.172;6.682;2024-01-25T13:41:19;30.87;;;8.27;;
71610;SDS011;59459;51.172;6.682;2024-01-25T13:43:44;28.23;;;6.63;;
71610;SDS011;59459;51.172;6.682;2024-01-25T13:46:09;32.40;;;7.73;;
71610;SDS011;59459;51.172;6.682;2024-01-25T13:48:35;21.57;;;7.33;;
71610;SDS011;59459;51.172;6.682;2024-01-25T13:51:00;31.00;;;7.57;;
71610;SDS011;59459;51.172;6.682;2024-01-25T13:53:25;29.23;;;6.77;;
71610;SDS011;59459;51.172;6.682;2024-01-25T13:55:50;35.77;;;7.33;;
71610;SDS011;59459;51.172;6.682;2024-01-25T13:58:16;26.87;;;7.43;;
71610;SDS011;59459;51.172;6.682;2024-01-25T14:00:41;34.57;;;7.23;;
71610;SDS011;59459;51.172;6.682;2024-01-25T14:03:06;23.23;;;6.30;;
71610;SDS011;59459;51.172;6.682;2024-01-25T14:05:31;26.63;;;5.83;;
71610;SDS011;59459;51.172;6.682;2024-01-25T14:07:56;27.83;;;6.53;;
71610;SDS011;59459;51.172;6.682;2024-01-25T14:10:22;41.70;;;10.80;;
71610;SDS011;59459;51.172;6.682;2024-01-25T14:12:47;36.20;;;10.77;;
71610;SDS011;59459;51.172;6.682;2024-01-25T14:15:12;31.20;;;8.83;;
71610;SDS011;59459;51.172;6.682;2024-01-25T14:17:38;31.33;;;10.27;;
71610;SDS011;59459;51.172;6.682;2024-01-25T14:20:03;34.00;;;7.90;;
71610;SDS011;59459;51.172;6.682;2024-01-25T14:22:29;27.10;;;6.30;;